Aviation Digital Data Service (ADDS)

Output produced by METARs form (0244 UTC 25 October 2014)
found at http://aviationweather.gov/adds/metars/
 
KBTV 242323Z 2500/2524 VRB03KT P6SM SCT035 BKN150 
     FM251400 21008KT P6SM BKN200 
     FM252000 18006KT P6SM VCSH SCT050 BKN150